sensor_id;sensor_type;location;lat;lon;timestamp;temperature;humidity
23801;DHT22;12081;48.614;10.226;2022-10-28T00:01:29;9.10;99.90
23801;DHT22;12081;48.614;10.226;2022-10-28T00:04:13;9.10;99.90
23801;DHT22;12081;48.614;10.226;2022-10-28T00:06:57;9.10;99.90
23801;DHT22;12081;48.614;10.226;2022-10-28T00:09:41;9.20;99.90
23801;DHT22;12081;48.614;10.226;2022-10-28T00:12:25;9.20;99.90
23801;DHT22;12081;48.614;10.226;2022-10-28T00:15:09;9.30;99.90
23801;DHT22;12081;48.614;10.226;2022-10-28T00:17:53;9.30;99.90
23801;DHT22;12081;48.614;10.226;2022-10-28T00:20:38;9.30;99.90
23801;DHT22;12081;48.614;10.226;2022-10-28T00:23:22;9.30;99.90
23801;DHT22;12081;48.614;10.226;2022-10-28T00:26:14;9.30;99.90
23801;DHT22;12081;48.614;10.226;2022-10-28T00:29:05;9.30;99.90
23801;DHT22;12081;48.614;10.226;2022-10-28T00:31:49;9.30;99.90
23801;DHT22;12081;48.614;10.226;2022-10-28T00:34:35;9.30;99.90
23801;DHT22;12081;48.614;10.226;2022-10-28T00:37:19;9.50;99.90
23801;DHT22;12081;48.614;10.226;2022-10-28T00:40:04;9.60;99.90
23801;DHT22;12081;48.614;10.226;2022-10-28T00:42:48;9.20;99.90
23801;DHT22;12081;48.614;10.226;2022-10-28T00:45:32;9.10;99.90
23801;DHT22;12081;48.614;10.226;2022-10-28T00:50:52;9.10;99.90
23801;DHT22;12081;48.614;10.226;2022-10-28T00:53:39;8.60;99.90
23801;DHT22;12081;48.614;10.226;2022-10-28T00:56:33;9.80;99.90
23801;DHT22;12081;48.614;10.226;2022-10-28T00:59:32;9.80;99.90
23801;DHT22;12081;48.614;10.226;2022-10-28T01:02:18;9.90;99.90
23801;DHT22;12081;48.614;10.226;2022-10-28T01:05:02;9.80;99.90
23801;DHT22;12081;48.614;10.226;2022-10-28T01:07:48;8.80;99.90
23801;DHT22;12081;48.614;10.226;2022-10-28T01:14:39;8.70;99.90
23801;DHT22;12081;48.614;10.226;2022-10-28T01:36:36;8.90;99.90
23801;DHT22;12081;48.614;10.226;2022-10-28T01:39:28;9.00;99.90
23801;DHT22;12081;48.614;10.226;2022-10-28T01:48:47;9.20;99.90
23801;DHT22;12081;48.614;10.226;2022-10-28T01:51:46;9.90;99.90
23801;DHT22;12081;48.614;10.226;2022-10-28T01:54:33;9.20;99.90
23801;DHT22;12081;48.614;10.226;2022-10-28T01:57:18;9.40;99.90
23801;DHT22;12081;48.614;10.226;2022-10-28T02:00:03;10.60;99.90
23801;DHT22;12081;48.614;10.226;2022-10-28T02:02:49;8.80;99.90
23801;DHT22;12081;48.614;10.226;2022-10-28T02:12:02;8.90;99.90
23801;DHT22;12081;48.614;10.226;2022-10-28T02:15:06;8.80;99.90
23801;DHT22;12081;48.614;10.226;2022-10-28T02:18:11;8.70;99.90
23801;DHT22;12081;48.614;10.226;2022-10-28T02:21:02;8.50;99.90
23801;DHT22;12081;48.614;10.226;2022-10-28T02:23:54;9.10;99.90
23801;DHT22;12081;48.614;10.226;2022-10-28T02:26:45;8.40;99.90
23801;DHT22;12081;48.614;10.226;2022-10-28T02:29:40;8.20;99.90
23801;DHT22;12081;48.614;10.226;2022-10-28T02:32:29;8.60;99.90
23801;DHT22;12081;48.614;10.226;2022-10-28T02:35:19;9.10;99.90
23801;DHT22;12081;48.614;10.226;2022-10-28T02:38:10;9.00;99.90
23801;DHT22;12081;48.614;10.226;2022-10-28T02:40:58;7.80;99.90
23801;DHT22;12081;48.614;10.226;2022-10-28T02:43:47;8.90;99.90
23801;DHT22;12081;48.614;10.226;2022-10-28T02:46:34;8.90;99.90
23801;DHT22;12081;48.614;10.226;2022-10-28T02:49:22;8.00;99.90
23801;DHT22;12081;48.614;10.226;2022-10-28T02:52:09;7.50;99.90
23801;DHT22;12081;48.614;10.226;2022-10-28T02:54:59;8.70;99.90
23801;DHT22;12081;48.614;10.226;2022-10-28T02:57:44;7.90;99.90
23801;DHT22;12081;48.614;10.226;2022-10-28T03:00:33;8.70;99.90
23801;DHT22;12081;48.614;10.226;2022-10-28T03:03:17;8.60;99.90
23801;DHT22;12081;48.614;10.226;2022-10-28T03:06:01;8.60;99.90
23801;DHT22;12081;48.614;10.226;2022-10-28T03:08:46;7.50;99.90
23801;DHT22;12081;48.614;10.226;2022-10-28T03:11:30;9.20;99.90
23801;DHT22;12081;48.614;10.226;2022-10-28T03:14:14;7.50;99.90
23801;DHT22;12081;48.614;10.226;2022-10-28T03:16:58;9.00;99.90
23801;DHT22;12081;48.614;10.226;2022-10-28T03:19:42;9.10;99.90
23801;DHT22;12081;48.614;10.226;2022-10-28T03:22:26;9.10;99.90
23801;DHT22;12081;48.614;10.226;2022-10-28T03:25:11;8.40;99.90
23801;DHT22;12081;48.614;10.226;2022-10-28T03:27:55;9.00;99.90
23801;DHT22;12081;48.614;10.226;2022-10-28T03:30:39;8.90;99.90
23801;DHT22;12081;48.614;10.226;2022-10-28T03:33:23;7.60;99.90
23801;DHT22;12081;48.614;10.226;2022-10-28T03:36:07;8.20;99.90
23801;DHT22;12081;48.614;10.226;2022-10-28T03:38:51;7.30;99.90
23801;DHT22;12081;48.614;10.226;2022-10-28T03:41:36;8.80;99.90
23801;DHT22;12081;48.614;10.226;2022-10-28T03:44:20;8.10;99.90
23801;DHT22;12081;48.614;10.226;2022-10-28T03:47:04;8.60;99.90
23801;DHT22;12081;48.614;10.226;2022-10-28T03:49:48;9.00;99.90
23801;DHT22;12081;48.614;10.226;2022-10-28T03:52:32;8.00;99.90
23801;DHT22;12081;48.614;10.226;2022-10-28T03:55:16;8.60;99.90
23801;DHT22;12081;48.614;10.226;2022-10-28T03:58:01;7.90;99.90
23801;DHT22;12081;48.614;10.226;2022-10-28T04:00:47;8.40;99.90
23801;DHT22;12081;48.614;10.226;2022-10-28T04:03:32;8.70;99.90
23801;DHT22;12081;48.614;10.226;2022-10-28T04:06:16;8.00;99.90
23801;DHT22;12081;48.614;10.226;2022-10-28T04:09:00;7.60;99.90
23801;DHT22;12081;48.614;10.226;2022-10-28T04:11:51;8.30;99.90
23801;DHT22;12081;48.614;10.226;2022-10-28T05:22:22;7.10;99.90
23801;DHT22;12081;48.614;10.226;2022-10-28T05:25:07;7.50;99.90
23801;DHT22;12081;48.614;10.226;2022-10-28T05:27:52;7.10;99.90
23801;DHT22;12081;48.614;10.226;2022-10-28T05:30:44;6.80;99.90
23801;DHT22;12081;48.614;10.226;2022-10-28T05:33:29;7.60;99.90
23801;DHT22;12081;48.614;10.226;2022-10-28T05:36:15;7.20;99.90
23801;DHT22;12081;48.614;10.226;2022-10-28T05:39:05;7.40;99.90
23801;DHT22;12081;48.614;10.226;2022-10-28T05:41:50;5.90;99.90
23801;DHT22;12081;48.614;10.226;2022-10-28T05:44:37;7.30;99.90
23801;DHT22;12081;48.614;10.226;2022-10-28T05:47:22;8.70;99.90
23801;DHT22;12081;48.614;10.226;2022-10-28T05:50:07;7.20;99.90
23801;DHT22;12081;48.614;10.226;2022-10-28T05:52:55;7.40;99.90
23801;DHT22;12081;48.614;10.226;2022-10-28T05:55:40;7.70;99.90
23801;DHT22;12081;48.614;10.226;2022-10-28T05:58:28;7.80;99.90
23801;DHT22;12081;48.614;10.226;2022-10-28T06:01:13;7.90;99.90
23801;DHT22;12081;48.614;10.226;2022-10-28T06:03:57;8.60;99.90
23801;DHT22;12081;48.614;10.226;2022-10-28T06:06:43;7.60;99.90
23801;DHT22;12081;48.614;10.226;2022-10-28T06:09:28;8.40;99.90
23801;DHT22;12081;48.614;10.226;2022-10-28T06:12:13;7.90;99.90
23801;DHT22;12081;48.614;10.226;2022-10-28T06:14:57;7.80;99.90
23801;DHT22;12081;48.614;10.226;2022-10-28T06:17:46;8.50;99.90
23801;DHT22;12081;48.614;10.226;2022-10-28T06:20:38;7.90;99.90
23801;DHT22;12081;48.614;10.226;2022-10-28T06:23:26;7.70;99.90
23801;DHT22;12081;48.614;10.226;2022-10-28T06:26:15;7.20;99.90
23801;DHT22;12081;48.614;10.226;2022-10-28T06:29:03;8.00;99.90
23801;DHT22;12081;48.614;10.226;2022-10-28T06:32:09;7.60;99.90
23801;DHT22;12081;48.614;10.226;2022-10-28T06:34:56;9.00;99.90
23801;DHT22;12081;48.614;10.226;2022-10-28T06:37:52;8.00;99.90
23801;DHT22;12081;48.614;10.226;2022-10-28T06:40:45;7.50;99.90
23801;DHT22;12081;48.614;10.226;2022-10-28T06:43:31;7.60;99.90
23801;DHT22;12081;48.614;10.226;2022-10-28T06:46:43;9.40;99.90
23801;DHT22;12081;48.614;10.226;2022-10-28T06:49:35;9.40;99.90
23801;DHT22;12081;48.614;10.226;2022-10-28T06:52:51;8.30;99.90
23801;DHT22;12081;48.614;10.226;2022-10-28T06:55:41;8.40;99.90
23801;DHT22;12081;48.614;10.226;2022-10-28T06:58:37;7.70;99.90
23801;DHT22;12081;48.614;10.226;2022-10-28T07:01:24;8.50;99.90
23801;DHT22;12081;48.614;10.226;2022-10-28T07:04:11;10.10;99.90
23801;DHT22;12081;48.614;10.226;2022-10-28T07:06:56;8.70;99.90
23801;DHT22;12081;48.614;10.226;2022-10-28T07:09:42;8.80;99.90
23801;DHT22;12081;48.614;10.226;2022-10-28T07:12:27;8.80;99.90
23801;DHT22;12081;48.614;10.226;2022-10-28T07:15:11;9.00;99.90
23801;DHT22;12081;48.614;10.226;2022-10-28T07:17:57;9.60;99.90
23801;DHT22;12081;48.614;10.226;2022-10-28T07:20:41;9.20;99.90
23801;DHT22;12081;48.614;10.226;2022-10-28T07:23:26;9.30;99.90
23801;DHT22;12081;48.614;10.226;2022-10-28T07:26:10;9.40;99.90
23801;DHT22;12081;48.614;10.226;2022-10-28T07:28:55;9.60;99.90
23801;DHT22;12081;48.614;10.226;2022-10-28T07:31:39;9.80;99.90
23801;DHT22;12081;48.614;10.226;2022-10-28T07:34:23;9.90;99.90
23801;DHT22;12081;48.614;10.226;2022-10-28T07:37:07;10.00;99.90
23801;DHT22;12081;48.614;10.226;2022-10-28T07:39:51;10.40;99.90
23801;DHT22;12081;48.614;10.226;2022-10-28T07:42:35;10.40;99.90
23801;DHT22;12081;48.614;10.226;2022-10-28T07:45:19;10.50;99.90
23801;DHT22;12081;48.614;10.226;2022-10-28T07:48:04;10.70;99.90
23801;DHT22;12081;48.614;10.226;2022-10-28T07:50:48;10.80;99.90
23801;DHT22;12081;48.614;10.226;2022-10-28T07:53:33;11.00;99.90
23801;DHT22;12081;48.614;10.226;2022-10-28T07:56:18;11.30;99.90
23801;DHT22;12081;48.614;10.226;2022-10-28T07:59:02;11.20;99.90
23801;DHT22;12081;48.614;10.226;2022-10-28T08:01:46;11.30;99.90
23801;DHT22;12081;48.614;10.226;2022-10-28T08:04:31;11.40;99.90
23801;DHT22;12081;48.614;10.226;2022-10-28T08:07:15;11.60;99.90
23801;DHT22;12081;48.614;10.226;2022-10-28T08:10:00;12.00;99.90
23801;DHT22;12081;48.614;10.226;2022-10-28T08:12:44;12.00;99.90
23801;DHT22;12081;48.614;10.226;2022-10-28T08:15:29;12.20;99.90
23801;DHT22;12081;48.614;10.226;2022-10-28T08:18:15;13.20;99.90
23801;DHT22;12081;48.614;10.226;2022-10-28T08:21:00;12.40;99.90
23801;DHT22;12081;48.614;10.226;2022-10-28T08:23:45;12.40;99.90
23801;DHT22;12081;48.614;10.226;2022-10-28T08:26:29;12.50;99.90
23801;DHT22;12081;48.614;10.226;2022-10-28T08:29:14;12.60;99.90
23801;DHT22;12081;48.614;10.226;2022-10-28T08:31:58;12.60;99.90
23801;DHT22;12081;48.614;10.226;2022-10-28T08:34:42;12.70;99.90
23801;DHT22;12081;48.614;10.226;2022-10-28T08:37:26;12.80;99.90
23801;DHT22;12081;48.614;10.226;2022-10-28T08:40:11;13.10;99.90
23801;DHT22;12081;48.614;10.226;2022-10-28T08:43:00;12.80;99.90
23801;DHT22;12081;48.614;10.226;2022-10-28T08:46:13;12.80;99.90
23801;DHT22;12081;48.614;10.226;2022-10-28T08:49:09;12.90;99.90
23801;DHT22;12081;48.614;10.226;2022-10-28T08:52:02;12.90;99.90
23801;DHT22;12081;48.614;10.226;2022-10-28T08:54:52;13.10;99.90
23801;DHT22;12081;48.614;10.226;2022-10-28T08:57:41;13.20;99.90
23801;DHT22;12081;48.614;10.226;2022-10-28T09:00:30;13.30;99.90
23801;DHT22;12081;48.614;10.226;2022-10-28T09:03:18;13.30;99.90
23801;DHT22;12081;48.614;10.226;2022-10-28T09:06:07;13.60;99.90
23801;DHT22;12081;48.614;10.226;2022-10-28T09:08:51;13.70;99.90
23801;DHT22;12081;48.614;10.226;2022-10-28T09:23:33;14.10;99.90
23801;DHT22;12081;48.614;10.226;2022-10-28T09:35:16;14.20;99.90
23801;DHT22;12081;48.614;10.226;2022-10-28T09:41:09;14.40;99.90
23801;DHT22;12081;48.614;10.226;2022-10-28T09:44:02;15.30;99.90
23801;DHT22;12081;48.614;10.226;2022-10-28T09:46:51;14.60;99.90
23801;DHT22;12081;48.614;10.226;2022-10-28T09:49:36;14.80;99.90
23801;DHT22;12081;48.614;10.226;2022-10-28T09:55:29;15.10;99.90
23801;DHT22;12081;48.614;10.226;2022-10-28T09:58:14;15.30;99.90
23801;DHT22;12081;48.614;10.226;2022-10-28T10:00:59;16.20;99.90
23801;DHT22;12081;48.614;10.226;2022-10-28T10:03:46;15.40;99.90
23801;DHT22;12081;48.614;10.226;2022-10-28T10:06:35;15.50;99.90
23801;DHT22;12081;48.614;10.226;2022-10-28T10:09:23;15.50;99.90
23801;DHT22;12081;48.614;10.226;2022-10-28T10:12:10;15.50;99.90
23801;DHT22;12081;48.614;10.226;2022-10-28T10:14:56;15.50;99.90
23801;DHT22;12081;48.614;10.226;2022-10-28T10:17:44;15.50;99.90
23801;DHT22;12081;48.614;10.226;2022-10-28T10:20:45;15.60;99.90
23801;DHT22;12081;48.614;10.226;2022-10-28T10:23:35;15.70;99.90
23801;DHT22;12081;48.614;10.226;2022-10-28T10:26:19;15.80;99.90
23801;DHT22;12081;48.614;10.226;2022-10-28T10:29:03;15.90;99.90
23801;DHT22;12081;48.614;10.226;2022-10-28T10:31:47;16.10;99.90
23801;DHT22;12081;48.614;10.226;2022-10-28T10:35:03;16.60;99.90
23801;DHT22;12081;48.614;10.226;2022-10-28T10:37:50;17.60;99.90
23801;DHT22;12081;48.614;10.226;2022-10-28T10:40:47;19.70;99.90
23801;DHT22;12081;48.614;10.226;2022-10-28T10:43:34;21.50;99.90
23801;DHT22;12081;48.614;10.226;2022-10-28T10:46:18;22.20;99.90
23801;DHT22;12081;48.614;10.226;2022-10-28T10:49:14;22.60;98.90
23801;DHT22;12081;48.614;10.226;2022-10-28T10:52:05;22.80;97.00
23801;DHT22;12081;48.614;10.226;2022-10-28T10:55:05;23.30;95.00
23801;DHT22;12081;48.614;10.226;2022-10-28T10:57:50;24.00;92.50
23801;DHT22;12081;48.614;10.226;2022-10-28T11:00:44;25.20;88.60
23801;DHT22;12081;48.614;10.226;2022-10-28T11:03:45;27.00;77.80
23801;DHT22;12081;48.614;10.226;2022-10-28T11:06:33;28.00;68.30
23801;DHT22;12081;48.614;10.226;2022-10-28T11:12:34;27.50;64.60
23801;DHT22;12081;48.614;10.226;2022-10-28T11:15:22;26.80;66.20
23801;DHT22;12081;48.614;10.226;2022-10-28T11:18:17;26.40;67.50
23801;DHT22;12081;48.614;10.226;2022-10-28T11:24:30;28.00;63.50
23801;DHT22;12081;48.614;10.226;2022-10-28T11:43:56;24.00;73.90
23801;DHT22;12081;48.614;10.226;2022-10-28T11:46:56;23.10;80.10
23801;DHT22;12081;48.614;10.226;2022-10-28T11:56:44;21.70;93.50
23801;DHT22;12081;48.614;10.226;2022-10-28T12:06:14;23.10;93.50
23801;DHT22;12081;48.614;10.226;2022-10-28T12:09:08;24.40;87.50
23801;DHT22;12081;48.614;10.226;2022-10-28T12:15:02;26.80;74.30
23801;DHT22;12081;48.614;10.226;2022-10-28T12:21:10;28.30;64.80
23801;DHT22;12081;48.614;10.226;2022-10-28T12:23:57;28.40;63.40
23801;DHT22;12081;48.614;10.226;2022-10-28T12:26:48;28.40;61.80
23801;DHT22;12081;48.614;10.226;2022-10-28T12:29:37;28.40;62.50
23801;DHT22;12081;48.614;10.226;2022-10-28T12:32:28;28.20;62.50
23801;DHT22;12081;48.614;10.226;2022-10-28T12:35:29;28.00;62.80
23801;DHT22;12081;48.614;10.226;2022-10-28T12:38:42;28.00;63.00
23801;DHT22;12081;48.614;10.226;2022-10-28T12:44:36;28.50;61.20
23801;DHT22;12081;48.614;10.226;2022-10-28T12:47:29;28.80;60.00
23801;DHT22;12081;48.614;10.226;2022-10-28T12:53:29;28.30;59.70
23801;DHT22;12081;48.614;10.226;2022-10-28T12:56:25;27.50;61.70
23801;DHT22;12081;48.614;10.226;2022-10-28T12:59:17;27.00;64.80
23801;DHT22;12081;48.614;10.226;2022-10-28T13:03:13;26.90;66.40
23801;DHT22;12081;48.614;10.226;2022-10-28T13:05:43;27.20;66.30
23801;DHT22;12081;48.614;10.226;2022-10-28T13:27:19;26.10;68.40
23801;DHT22;12081;48.614;10.226;2022-10-28T13:30:04;25.30;70.50
23801;DHT22;12081;48.614;10.226;2022-10-28T13:33:12;24.40;73.70
23801;DHT22;12081;48.614;10.226;2022-10-28T13:36:23;23.80;77.30
23801;DHT22;12081;48.614;10.226;2022-10-28T13:39:44;23.50;81.60
23801;DHT22;12081;48.614;10.226;2022-10-28T13:42:45;23.60;82.10
23801;DHT22;12081;48.614;10.226;2022-10-28T13:46:02;23.80;81.00
23801;DHT22;12081;48.614;10.226;2022-10-28T13:48:47;23.60;83.10
23801;DHT22;12081;48.614;10.226;2022-10-28T13:51:31;23.20;84.90
23801;DHT22;12081;48.614;10.226;2022-10-28T13:54:27;22.90;88.30
23801;DHT22;12081;48.614;10.226;2022-10-28T14:00:33;22.80;92.10
23801;DHT22;12081;48.614;10.226;2022-10-28T14:03:23;22.70;92.10
23801;DHT22;12081;48.614;10.226;2022-10-28T14:06:07;22.70;93.20
23801;DHT22;12081;48.614;10.226;2022-10-28T14:08:51;22.60;93.40
23801;DHT22;12081;48.614;10.226;2022-10-28T14:11:35;22.70;94.40
23801;DHT22;12081;48.614;10.226;2022-10-28T14:14:19;22.40;95.40
23801;DHT22;12081;48.614;10.226;2022-10-28T14:17:04;22.20;97.40
23801;DHT22;12081;48.614;10.226;2022-10-28T14:20:02;22.30;98.40
23801;DHT22;12081;48.614;10.226;2022-10-28T14:22:47;22.80;97.50
23801;DHT22;12081;48.614;10.226;2022-10-28T14:36:52;24.70;90.00
23801;DHT22;12081;48.614;10.226;2022-10-28T14:39:55;24.90;89.40
23801;DHT22;12081;48.614;10.226;2022-10-28T14:42:50;24.90;87.40
23801;DHT22;12081;48.614;10.226;2022-10-28T14:48:52;24.90;85.50
23801;DHT22;12081;48.614;10.226;2022-10-28T14:51:39;24.80;84.40
23801;DHT22;12081;48.614;10.226;2022-10-28T14:54:46;24.50;84.70
23801;DHT22;12081;48.614;10.226;2022-10-28T14:57:32;24.10;87.10
23801;DHT22;12081;48.614;10.226;2022-10-28T15:00:22;23.60;90.60
23801;DHT22;12081;48.614;10.226;2022-10-28T15:03:10;23.20;93.40
23801;DHT22;12081;48.614;10.226;2022-10-28T15:05:54;22.80;94.70
23801;DHT22;12081;48.614;10.226;2022-10-28T15:08:39;22.30;98.10
23801;DHT22;12081;48.614;10.226;2022-10-28T15:11:23;22.00;99.10
23801;DHT22;12081;48.614;10.226;2022-10-28T15:17:25;21.20;99.90
23801;DHT22;12081;48.614;10.226;2022-10-28T15:20:23;21.00;99.90
23801;DHT22;12081;48.614;10.226;2022-10-28T15:23:16;20.80;99.90
23801;DHT22;12081;48.614;10.226;2022-10-28T15:26:14;20.60;99.90
23801;DHT22;12081;48.614;10.226;2022-10-28T15:28:59;20.40;99.90
23801;DHT22;12081;48.614;10.226;2022-10-28T15:32:28;20.20;99.90
23801;DHT22;12081;48.614;10.226;2022-10-28T15:38:50;19.90;99.90
23801;DHT22;12081;48.614;10.226;2022-10-28T15:41:43;19.80;99.90
23801;DHT22;12081;48.614;10.226;2022-10-28T15:44:36;19.70;99.90
23801;DHT22;12081;48.614;10.226;2022-10-28T15:47:35;19.50;99.90
23801;DHT22;12081;48.614;10.226;2022-10-28T15:59:19;19.10;99.90
23801;DHT22;12081;48.614;10.226;2022-10-28T16:02:40;18.90;99.90
23801;DHT22;12081;48.614;10.226;2022-10-28T16:08:23;18.60;99.90
23801;DHT22;12081;48.614;10.226;2022-10-28T16:11:14;18.40;99.90
23801;DHT22;12081;48.614;10.226;2022-10-28T16:17:18;18.10;99.90
23801;DHT22;12081;48.614;10.226;2022-10-28T16:20:12;18.00;99.90
23801;DHT22;12081;48.614;10.226;2022-10-28T16:22:57;17.90;99.90
23801;DHT22;12081;48.614;10.226;2022-10-28T16:25:41;17.90;99.90
23801;DHT22;12081;48.614;10.226;2022-10-28T16:28:26;17.80;99.90
23801;DHT22;12081;48.614;10.226;2022-10-28T16:31:14;17.70;99.90
23801;DHT22;12081;48.614;10.226;2022-10-28T16:33:59;17.70;99.90
23801;DHT22;12081;48.614;10.226;2022-10-28T16:36:43;17.70;99.90
23801;DHT22;12081;48.614;10.226;2022-10-28T16:39:27;17.70;99.90
23801;DHT22;12081;48.614;10.226;2022-10-28T16:42:11;17.60;99.90
23801;DHT22;12081;48.614;10.226;2022-10-28T16:44:55;17.50;99.90
23801;DHT22;12081;48.614;10.226;2022-10-28T16:47:39;17.40;99.90
23801;DHT22;12081;48.614;10.226;2022-10-28T16:50:23;17.30;99.90
23801;DHT22;12081;48.614;10.226;2022-10-28T16:53:10;17.30;99.90
23801;DHT22;12081;48.614;10.226;2022-10-28T16:55:55;17.40;99.90
23801;DHT22;12081;48.614;10.226;2022-10-28T16:58:42;17.20;99.90
23801;DHT22;12081;48.614;10.226;2022-10-28T17:01:26;17.20;99.90
23801;DHT22;12081;48.614;10.226;2022-10-28T17:04:10;17.20;99.90
23801;DHT22;12081;48.614;10.226;2022-10-28T17:06:54;17.10;99.90
23801;DHT22;12081;48.614;10.226;2022-10-28T17:09:39;17.00;99.90
23801;DHT22;12081;48.614;10.226;2022-10-28T17:12:25;17.00;99.90
23801;DHT22;12081;48.614;10.226;2022-10-28T17:15:10;16.80;99.90
23801;DHT22;12081;48.614;10.226;2022-10-28T17:17:54;16.70;99.90
23801;DHT22;12081;48.614;10.226;2022-10-28T17:20:38;16.70;99.90
23801;DHT22;12081;48.614;10.226;2022-10-28T17:23:22;16.60;99.90
23801;DHT22;12081;48.614;10.226;2022-10-28T17:26:06;16.50;99.90
23801;DHT22;12081;48.614;10.226;2022-10-28T17:28:51;16.50;99.90
23801;DHT22;12081;48.614;10.226;2022-10-28T17:31:35;16.40;99.90
23801;DHT22;12081;48.614;10.226;2022-10-28T17:34:19;16.50;99.90
23801;DHT22;12081;48.614;10.226;2022-10-28T17:37:03;16.40;99.90
23801;DHT22;12081;48.614;10.226;2022-10-28T17:39:47;16.40;99.90
23801;DHT22;12081;48.614;10.226;2022-10-28T17:42:33;16.40;99.90
23801;DHT22;12081;48.614;10.226;2022-10-28T17:45:18;16.30;99.90
23801;DHT22;12081;48.614;10.226;2022-10-28T17:48:02;16.30;99.90
23801;DHT22;12081;48.614;10.226;2022-10-28T17:50:53;16.30;99.90
23801;DHT22;12081;48.614;10.226;2022-10-28T17:53:38;16.20;99.90
23801;DHT22;12081;48.614;10.226;2022-10-28T17:56:22;16.20;99.90
23801;DHT22;12081;48.614;10.226;2022-10-28T17:59:06;16.10;99.90
23801;DHT22;12081;48.614;10.226;2022-10-28T18:01:51;16.10;99.90
23801;DHT22;12081;48.614;10.226;2022-10-28T18:04:35;16.10;99.90
23801;DHT22;12081;48.614;10.226;2022-10-28T18:07:19;15.90;99.90
23801;DHT22;12081;48.614;10.226;2022-10-28T18:10:03;15.80;99.90
23801;DHT22;12081;48.614;10.226;2022-10-28T18:12:50;15.70;99.90
23801;DHT22;12081;48.614;10.226;2022-10-28T18:15:35;16.50;99.90
23801;DHT22;12081;48.614;10.226;2022-10-28T18:18:24;15.50;99.90
23801;DHT22;12081;48.614;10.226;2022-10-28T18:21:12;15.40;99.90
23801;DHT22;12081;48.614;10.226;2022-10-28T18:23:56;15.40;99.90
23801;DHT22;12081;48.614;10.226;2022-10-28T18:26:49;15.30;99.90
23801;DHT22;12081;48.614;10.226;2022-10-28T18:29:38;15.40;99.90
23801;DHT22;12081;48.614;10.226;2022-10-28T18:32:22;15.30;99.90
23801;DHT22;12081;48.614;10.226;2022-10-28T18:35:06;15.20;99.90
23801;DHT22;12081;48.614;10.226;2022-10-28T18:37:51;15.20;99.90
23801;DHT22;12081;48.614;10.226;2022-10-28T18:40:36;15.20;99.90
23801;DHT22;12081;48.614;10.226;2022-10-28T18:43:20;15.10;99.90
23801;DHT22;12081;48.614;10.226;2022-10-28T18:46:05;15.20;99.90
23801;DHT22;12081;48.614;10.226;2022-10-28T18:48:51;15.00;99.90
23801;DHT22;12081;48.614;10.226;2022-10-28T18:51:36;14.90;99.90
23801;DHT22;12081;48.614;10.226;2022-10-28T18:54:20;14.80;99.90
23801;DHT22;12081;48.614;10.226;2022-10-28T18:57:04;14.70;99.90
23801;DHT22;12081;48.614;10.226;2022-10-28T18:59:48;14.70;99.90
23801;DHT22;12081;48.614;10.226;2022-10-28T19:02:34;15.40;99.90
23801;DHT22;12081;48.614;10.226;2022-10-28T19:05:18;14.60;99.90
23801;DHT22;12081;48.614;10.226;2022-10-28T19:08:02;14.50;99.90
23801;DHT22;12081;48.614;10.226;2022-10-28T19:10:46;14.40;99.90
23801;DHT22;12081;48.614;10.226;2022-10-28T19:13:33;14.30;99.90
23801;DHT22;12081;48.614;10.226;2022-10-28T19:16:18;14.20;99.90
23801;DHT22;12081;48.614;10.226;2022-10-28T19:19:03;14.10;99.90
23801;DHT22;12081;48.614;10.226;2022-10-28T19:21:48;14.10;99.90
23801;DHT22;12081;48.614;10.226;2022-10-28T19:24:34;14.10;99.90
23801;DHT22;12081;48.614;10.226;2022-10-28T19:27:18;14.10;99.90
23801;DHT22;12081;48.614;10.226;2022-10-28T19:30:03;14.30;99.90
23801;DHT22;12081;48.614;10.226;2022-10-28T19:32:47;14.10;99.90
23801;DHT22;12081;48.614;10.226;2022-10-28T19:35:31;13.90;99.90
23801;DHT22;12081;48.614;10.226;2022-10-28T19:38:16;13.90;99.90
23801;DHT22;12081;48.614;10.226;2022-10-28T19:41:05;13.80;99.90
23801;DHT22;12081;48.614;10.226;2022-10-28T19:43:58;13.70;99.90
23801;DHT22;12081;48.614;10.226;2022-10-28T19:46:42;13.60;99.90
23801;DHT22;12081;48.614;10.226;2022-10-28T19:49:26;13.60;99.90
23801;DHT22;12081;48.614;10.226;2022-10-28T19:52:10;13.60;99.90
23801;DHT22;12081;48.614;10.226;2022-10-28T19:54:54;13.60;99.90
23801;DHT22;12081;48.614;10.226;2022-10-28T19:57:38;13.60;99.90
23801;DHT22;12081;48.614;10.226;2022-10-28T20:00:22;13.60;99.90
23801;DHT22;12081;48.614;10.226;2022-10-28T20:03:06;13.60;99.90
23801;DHT22;12081;48.614;10.226;2022-10-28T20:06:01;13.60;99.90
23801;DHT22;12081;48.614;10.226;2022-10-28T20:08:47;13.50;99.90
23801;DHT22;12081;48.614;10.226;2022-10-28T20:11:34;13.40;99.90
23801;DHT22;12081;48.614;10.226;2022-10-28T20:14:20;13.40;99.90
23801;DHT22;12081;48.614;10.226;2022-10-28T20:17:04;13.50;99.90
23801;DHT22;12081;48.614;10.226;2022-10-28T20:19:48;13.50;99.90
23801;DHT22;12081;48.614;10.226;2022-10-28T20:22:33;13.80;99.90
23801;DHT22;12081;48.614;10.226;2022-10-28T20:25:17;13.50;99.90
23801;DHT22;12081;48.614;10.226;2022-10-28T20:28:01;13.50;99.90
23801;DHT22;12081;48.614;10.226;2022-10-28T20:31:04;13.50;99.90
23801;DHT22;12081;48.614;10.226;2022-10-28T20:33:52;13.80;99.90
23801;DHT22;12081;48.614;10.226;2022-10-28T20:36:38;13.50;99.90
23801;DHT22;12081;48.614;10.226;2022-10-28T20:39:23;13.50;99.90
23801;DHT22;12081;48.614;10.226;2022-10-28T20:42:07;13.40;99.90
23801;DHT22;12081;48.614;10.226;2022-10-28T20:44:51;13.40;99.90
23801;DHT22;12081;48.614;10.226;2022-10-28T20:47:35;13.40;99.90
23801;DHT22;12081;48.614;10.226;2022-10-28T20:50:19;13.40;99.90
23801;DHT22;12081;48.614;10.226;2022-10-28T20:53:04;13.40;99.90
23801;DHT22;12081;48.614;10.226;2022-10-28T20:55:49;13.40;99.90
23801;DHT22;12081;48.614;10.226;2022-10-28T20:58:34;13.20;99.90
23801;DHT22;12081;48.614;10.226;2022-10-28T21:01:27;13.10;99.90
23801;DHT22;12081;48.614;10.226;2022-10-28T21:04:11;13.20;99.90
23801;DHT22;12081;48.614;10.226;2022-10-28T21:06:55;13.10;99.90
23801;DHT22;12081;48.614;10.226;2022-10-28T21:09:39;13.00;99.90
23801;DHT22;12081;48.614;10.226;2022-10-28T21:12:23;13.00;99.90
23801;DHT22;12081;48.614;10.226;2022-10-28T21:15:09;13.00;99.90
23801;DHT22;12081;48.614;10.226;2022-10-28T21:17:53;13.00;99.90
23801;DHT22;12081;48.614;10.226;2022-10-28T21:20:38;12.90;99.90
23801;DHT22;12081;48.614;10.226;2022-10-28T21:23:23;12.90;99.90
23801;DHT22;12081;48.614;10.226;2022-10-28T21:26:09;12.70;99.90
23801;DHT22;12081;48.614;10.226;2022-10-28T21:28:53;12.60;99.90
23801;DHT22;12081;48.614;10.226;2022-10-28T21:31:39;12.60;99.90